createdAt,value
2023-04-20T00:00:42.513Z,100420.00
2023-04-20T00:02:07.771Z,100433.16
2023-04-20T00:03:30.214Z,100429.81
2023-04-20T00:04:52.019Z,100440.34
2023-04-20T00:06:16.287Z,100432.16
2023-04-20T00:07:38.761Z,100437.53
2023-04-20T00:09:00.223Z,100434.16
2023-04-20T00:10:22.401Z,100432.16
2023-04-20T00:11:43.537Z,100430.63
2023-04-20T00:13:07.113Z,100415.00
2023-04-20T00:14:31.950Z,100424.94
2023-04-20T00:15:54.079Z,100423.09
2023-04-20T00:17:19.117Z,100432.00
2023-04-20T00:18:40.752Z,100434.69
2023-04-20T00:20:05.304Z,100427.63
2023-04-20T00:21:27.312Z,100425.97
2023-04-20T00:22:49.333Z,100429.16
2023-04-20T00:24:11.685Z,100435.19
2023-04-20T00:25:32.817Z,100433.34
2023-04-20T00:26:55.826Z,100428.81
2023-04-20T00:28:18.862Z,100428.16
2023-04-20T00:29:41.609Z,100436.38
2023-04-20T00:31:02.718Z,100438.56
2023-04-20T00:32:28.729Z,100437.88
2023-04-20T00:33:50.225Z,100441.59
2023-04-20T00:35:12.619Z,100437.19
2023-04-20T00:36:33.592Z,100439.19
2023-04-20T00:37:57.838Z,100434.16
2023-04-20T00:39:20.069Z,100428.28
2023-04-20T00:40:53.173Z,100431.94
2023-04-20T00:42:15.475Z,100434.78
2023-04-20T00:43:38.172Z,100436.78
2023-04-20T00:45:01.842Z,100442.28
2023-04-20T00:46:27.456Z,100438.78
2023-04-20T00:47:50.339Z,100438.09
2023-04-20T00:49:11.972Z,100425.47
2023-04-20T00:50:34.883Z,100443.63
2023-04-20T00:51:57.386Z,100439.09
2023-04-20T00:53:20.813Z,100426.03
2023-04-20T00:54:45.823Z,100429.53
2023-04-20T00:56:09.039Z,100436.41
2023-04-20T00:57:31.390Z,100439.09
2023-04-20T00:59:00.713Z,100430.38
2023-04-20T01:00:26.321Z,100431.91
2023-04-20T01:01:47.547Z,100425.34
2023-04-20T01:03:10.961Z,100428.84
2023-04-20T01:04:35.198Z,100434.91
2023-04-20T01:05:57.855Z,100431.38
2023-04-20T01:07:20.056Z,100431.53
2023-04-20T01:08:49.223Z,100440.41
2023-04-20T01:10:10.802Z,100431.53
2023-04-20T01:11:34.899Z,100427.63
2023-04-20T01:12:56.130Z,100428.34
2023-04-20T01:14:19.956Z,100429.00
2023-04-20T01:15:41.416Z,100427.63
2023-04-20T01:17:06.366Z,100422.09
2023-04-20T01:18:27.895Z,100423.94
2023-04-20T01:19:52.201Z,100410.19
2023-04-20T01:21:14.484Z,100417.75
2023-04-20T01:22:45.420Z,100411.19
2023-04-20T01:24:12.953Z,100423.44
2023-04-20T01:25:40.344Z,100424.41
2023-04-20T01:27:02.986Z,100412.13
2023-04-20T01:28:29.801Z,100415.31
2023-04-20T01:29:51.186Z,100416.66
2023-04-20T01:31:14.362Z,100428.56
2023-04-20T01:32:37.126Z,100427.72
2023-04-20T01:33:59.954Z,100422.53
2023-04-20T01:35:21.667Z,100410.75
2023-04-20T01:36:43.901Z,100419.84
2023-04-20T01:38:10.560Z,100422.16
2023-04-20T01:39:35.589Z,100417.47
2023-04-20T01:40:59.274Z,100426.53
2023-04-20T01:42:22.990Z,100421.16
2023-04-20T01:43:45.512Z,100414.94
2023-04-20T01:45:08.957Z,100409.75
2023-04-20T01:46:35.820Z,100405.19
2023-04-20T01:47:58.225Z,100410.75
2023-04-20T01:49:24.057Z,100403.34
2023-04-20T01:50:46.432Z,100396.59
2023-04-20T01:52:11.931Z,100409.06
2023-04-20T01:53:36.248Z,100403.72
2023-04-20T01:54:57.260Z,100402.69
2023-04-20T01:56:19.987Z,100410.91
2023-04-20T01:57:40.964Z,100416.09
2023-04-20T01:59:03.588Z,100399.50
2023-04-20T02:00:25.553Z,100394.47
2023-04-20T02:01:50.685Z,100408.06
2023-04-20T02:03:12.593Z,100380.19
2023-04-20T02:04:35.004Z,100401.88
2023-04-20T02:05:57.712Z,100405.38
2023-04-20T02:07:27.040Z,100393.31
2023-04-20T02:08:51.145Z,100392.31
2023-04-20T02:10:15.284Z,100401.72
2023-04-20T02:11:40.646Z,100385.56
2023-04-20T02:13:04.419Z,100390.63
2023-04-20T02:14:27.559Z,100396.50
2023-04-20T02:15:49.826Z,100382.03
2023-04-20T02:17:11.737Z,100398.66
2023-04-20T02:18:36.289Z,100404.69
2023-04-20T02:19:58.143Z,100406.38
2023-04-20T02:21:23.387Z,100406.38
2023-04-20T02:22:46.062Z,100401.63
2023-04-20T02:24:09.670Z,100414.88
2023-04-20T02:25:31.144Z,100410.22
2023-04-20T02:26:59.209Z,100412.91
2023-04-20T02:28:22.638Z,100403.34
2023-04-20T02:29:45.221Z,100394.09
2023-04-20T02:31:09.923Z,100395.63
2023-04-20T02:32:37.418Z,100389.41
2023-04-20T02:34:29.936Z,100386.19
2023-04-20T02:36:00.320Z,100376.09
2023-04-20T02:37:34.748Z,100373.59
2023-04-20T02:38:57.361Z,100391.56
2023-04-20T02:40:57.257Z,100388.28
2023-04-20T02:42:28.106Z,100400.50
2023-04-20T02:43:54.640Z,100386.75
2023-04-20T02:45:18.899Z,100398.53
2023-04-20T02:46:48.855Z,100389.09
2023-04-20T02:50:32.513Z,100382.84
2023-04-20T02:54:44.256Z,100384.38
2023-04-20T02:56:40.823Z,100385.44
2023-04-20T02:58:05.024Z,100379.03
2023-04-20T02:59:50.014Z,100383.22
2023-04-20T03:01:37.568Z,100377.03
2023-04-20T03:03:06.937Z,100384.91
2023-04-20T03:04:32.140Z,100392.34
2023-04-20T03:06:00.425Z,100387.66
2023-04-20T03:07:23.197Z,100391.88
2023-04-20T03:08:46.978Z,100393.53
2023-04-20T03:10:38.261Z,100393.53
2023-04-20T03:12:11.023Z,100385.19
2023-04-20T03:13:54.800Z,100391.25
2023-04-20T03:15:17.317Z,100380.84
2023-04-20T03:16:59.921Z,100389.75
2023-04-20T03:18:21.438Z,100384.72
2023-04-20T03:19:44.442Z,100393.97
2023-04-20T03:21:07.502Z,100383.44
2023-04-20T03:22:28.601Z,100387.63
2023-04-20T03:23:54.015Z,100381.06
2023-04-20T03:25:16.857Z,100388.31
2023-04-20T03:26:47.732Z,100383.94
2023-04-20T03:28:14.435Z,100382.59
2023-04-20T03:29:37.276Z,100402.09
2023-04-20T03:31:48.437Z,100390.53
2023-04-20T03:39:25.176Z,100380.75
2023-04-20T03:43:23.318Z,100409.59
2023-04-20T03:45:40.216Z,100405.38
2023-04-20T03:58:31.374Z,100395.44
2023-04-20T04:00:15.843Z,100399.31
2023-04-20T04:01:47.827Z,100393.44
2023-04-20T04:03:12.816Z,100407.78
2023-04-20T04:04:36.324Z,100407.91
2023-04-20T04:06:04.224Z,100404.22
2023-04-20T04:07:50.940Z,100413.66
2023-04-20T04:10:23.384Z,100411.66
2023-04-20T04:12:13.204Z,100408.13
2023-04-20T04:13:53.615Z,100414.16
2023-04-20T04:15:39.132Z,100406.13
2023-04-20T04:17:30.918Z,100410.88
2023-04-20T04:18:54.743Z,100406.72
2023-04-20T04:20:54.171Z,100403.88
2023-04-20T04:23:01.043Z,100399.88
2023-04-20T04:24:29.386Z,100396.56
2023-04-20T04:26:02.134Z,100399.47
2023-04-20T04:27:35.117Z,100397.28
2023-04-20T04:29:03.192Z,100391.78
2023-04-20T04:30:30.909Z,100412.25
2023-04-20T04:32:12.221Z,100406.38
2023-04-20T06:02:15.464Z,100440.09
2023-04-20T06:04:16.333Z,100452.22
2023-04-20T06:07:39.940Z,100458.41
2023-04-20T06:10:00.312Z,100453.53
2023-04-20T06:13:27.862Z,100470.53
2023-04-20T06:15:05.919Z,100463.28
2023-04-20T06:17:13.355Z,100468.00
2023-04-20T06:18:56.191Z,100459.44
2023-04-20T06:21:02.920Z,100458.91
2023-04-20T06:22:54.856Z,100473.94
2023-04-20T06:24:25.123Z,100466.88
2023-04-20T06:26:16.549Z,100462.53
2023-04-20T06:27:51.331Z,100462.19
2023-04-20T06:30:12.702Z,100474.63
2023-04-20T06:31:35.230Z,100460.69
2023-04-20T06:33:54.145Z,100460.53
2023-04-20T06:35:57.746Z,100479.53
2023-04-20T06:37:36.071Z,100476.16
2023-04-20T06:39:19.736Z,100473.31
2023-04-20T06:41:15.560Z,100473.00
2023-04-20T06:42:42.416Z,100484.75
2023-04-20T06:44:51.017Z,100479.88
2023-04-20T06:46:15.412Z,100478.19
2023-04-20T06:47:41.516Z,100481.88
2023-04-20T06:49:31.474Z,100478.00
2023-04-20T06:51:10.392Z,100483.72
2023-04-20T06:52:53.424Z,100478.00
2023-04-20T06:54:15.861Z,100490.09
2023-04-20T06:55:38.364Z,100484.00
2023-04-20T06:57:06.639Z,100474.91
2023-04-20T06:58:29.071Z,100488.66
2023-04-20T06:59:54.004Z,100473.19
2023-04-20T07:01:22.171Z,100484.94
2023-04-20T07:02:48.648Z,100474.81
2023-04-20T07:04:11.427Z,100476.47
2023-04-20T07:05:36.371Z,100484.81
2023-04-20T07:07:02.414Z,100482.06
2023-04-20T07:08:24.737Z,100476.00
2023-04-20T07:09:46.043Z,100485.84
2023-04-20T07:11:14.478Z,100476.19
2023-04-20T07:14:44.704Z,100468.44
2023-04-20T07:15:31.786Z,100475.50
2023-04-20T07:20:42.998Z,100491.22
2023-04-20T07:37:39.034Z,100494.03
2023-04-20T07:39:05.535Z,100496.19
2023-04-20T07:49:29.752Z,100505.75
2023-04-20T07:54:51.642Z,100510.59
2023-04-20T07:57:22.529Z,100498.38
2023-04-20T08:48:37.933Z,100499.97
2023-04-20T08:50:42.289Z,100501.13
2023-04-20T08:52:24.004Z,100496.69
2023-04-20T09:10:01.203Z,100504.53
2023-04-20T09:12:09.071Z,100494.53
2023-04-20T09:16:14.304Z,100506.22
2023-04-20T09:17:43.108Z,100493.25
2023-04-20T10:03:05.907Z,100488.97
2023-04-20T10:05:44.412Z,100491.50
2023-04-20T10:08:22.788Z,100501.56
2023-04-20T10:10:40.024Z,100497.78
2023-04-20T10:13:13.336Z,100514.38
2023-04-20T10:15:00.995Z,100498.66
2023-04-20T10:16:35.610Z,100503.09
2023-04-20T10:18:25.642Z,100506.22
2023-04-20T10:20:36.042Z,100495.22
2023-04-20T10:22:08.774Z,100500.50
2023-04-20T10:23:52.946Z,100497.59
2023-04-20T10:25:28.221Z,100505.91
2023-04-20T10:26:50.769Z,100502.50
2023-04-20T10:28:44.817Z,100508.00
2023-04-20T10:30:24.648Z,100500.53
2023-04-20T10:31:47.238Z,100507.97
2023-04-20T10:36:39.916Z,100500.50
2023-04-20T10:38:05.159Z,100486.16
2023-04-20T10:39:33.041Z,100495.91
2023-04-20T10:40:58.206Z,100484.84
2023-04-20T10:42:20.486Z,100478.44
2023-04-20T10:43:44.347Z,100476.81
2023-04-20T10:45:11.254Z,100483.13
2023-04-20T10:46:36.560Z,100478.50
2023-04-20T10:48:02.980Z,100481.78
2023-04-20T10:49:29.069Z,100472.59
2023-04-20T10:50:51.463Z,100483.59
2023-04-20T10:52:13.857Z,100483.75
2023-04-20T10:53:42.940Z,100477.84
2023-04-20T10:55:47.770Z,100471.88
2023-04-20T10:57:26.952Z,100463.44
2023-04-20T11:07:33.583Z,100457.56
2023-04-20T11:09:05.401Z,100459.47
2023-04-20T11:11:01.180Z,100465.63
2023-04-20T11:19:21.614Z,100465.59
2023-04-20T11:23:27.642Z,100456.38
2023-04-20T11:37:12.525Z,100445.56
2023-04-20T11:39:12.249Z,100443.53
2023-04-20T11:41:17.586Z,100443.34
2023-04-20T11:42:53.690Z,100427.13
2023-04-20T11:44:22.417Z,100435.59
2023-04-20T11:46:24.768Z,100432.31
2023-04-20T11:47:58.221Z,100426.56
2023-04-20T11:52:40.478Z,100427.56
2023-04-20T11:54:03.026Z,100434.22
2023-04-20T11:56:50.269Z,100426.69
2023-04-20T11:58:17.805Z,100425.03
2023-04-20T12:00:12.177Z,100431.00
2023-04-20T12:01:37.713Z,100417.22
2023-04-20T12:03:00.255Z,100425.78
2023-04-20T12:04:23.406Z,100418.88
2023-04-20T12:05:46.241Z,100417.00
2023-04-20T12:12:31.527Z,100427.53
2023-04-20T12:16:56.736Z,100412.59
2023-04-20T12:18:41.116Z,100405.75
2023-04-20T12:20:09.064Z,100402.06
2023-04-20T12:21:45.273Z,100410.34
2023-04-20T12:23:07.491Z,100410.25
2023-04-20T12:24:42.950Z,100395.59
2023-04-20T12:26:53.244Z,100399.13
2023-04-20T12:29:07.459Z,100403.31
2023-04-20T12:31:36.329Z,100399.06
2023-04-20T12:32:58.973Z,100388.09
2023-04-20T12:34:21.722Z,100399.97
2023-04-20T12:36:13.140Z,100377.97
2023-04-20T12:38:55.173Z,100379.75
2023-04-20T12:40:19.015Z,100379.47
2023-04-20T12:41:46.056Z,100382.81
2023-04-20T12:44:09.960Z,100377.81
2023-04-20T12:45:34.472Z,100388.16
2023-04-20T12:47:01.606Z,100379.22
2023-04-20T12:49:02.700Z,100381.47
2023-04-20T12:50:39.461Z,100379.50
2023-04-20T12:53:02.617Z,100370.00
2023-04-20T12:54:44.841Z,100379.00
2023-04-20T12:56:57.014Z,100372.50
2023-04-20T12:59:30.079Z,100378.78
2023-04-20T13:01:20.695Z,100364.50
2023-04-20T13:08:09.575Z,100369.31
2023-04-20T13:13:00.899Z,100367.31
2023-04-20T13:14:40.499Z,100366.94
2023-04-20T13:16:18.033Z,100353.16
2023-04-20T13:17:44.733Z,100366.06
2023-04-20T13:19:54.182Z,100360.34
2023-04-20T13:24:54.001Z,100361.44
2023-04-20T13:26:46.428Z,100366.88
2023-04-20T13:28:22.057Z,100356.25
2023-04-20T13:30:06.647Z,100366.59
2023-04-20T13:31:38.368Z,100352.28
2023-04-20T13:33:00.895Z,100353.97
2023-04-20T13:34:27.592Z,100353.78
2023-04-20T13:36:06.843Z,100353.94
2023-04-20T13:37:33.796Z,100352.91
2023-04-20T13:42:40.205Z,100360.72
2023-04-20T13:44:08.071Z,100353.22
2023-04-20T13:49:23.986Z,100365.31
2023-04-20T13:54:10.354Z,100358.16
2023-04-20T13:58:53.840Z,100359.34
2023-04-20T14:00:19.483Z,100339.66
2023-04-20T14:32:06.445Z,100334.56
2023-04-20T14:37:05.117Z,100342.72
2023-04-20T14:38:33.605Z,100337.66
2023-04-20T14:42:50.157Z,100339.38
2023-04-20T14:47:32.059Z,100337.22
2023-04-20T14:49:04.555Z,100329.72
2023-04-20T14:50:38.994Z,100338.31
2023-04-20T14:52:02.456Z,100332.91
2023-04-20T14:53:24.853Z,100343.19
2023-04-20T14:54:48.592Z,100320.06
2023-04-20T14:56:14.320Z,100330.44
2023-04-20T14:57:39.183Z,100333.00
2023-04-20T14:59:04.197Z,100333.22
2023-04-20T15:00:31.124Z,100320.81
2023-04-20T15:02:03.093Z,100326.06
2023-04-20T15:04:01.496Z,100337.69
2023-04-20T15:05:28.431Z,100334.38
2023-04-20T15:06:58.325Z,100325.50
2023-04-20T15:08:34.229Z,100338.91
2023-04-20T15:10:06.539Z,100337.50
2023-04-20T15:11:32.048Z,100336.09
2023-04-20T15:12:54.585Z,100319.41
2023-04-20T15:14:35.813Z,100349.56
2023-04-20T15:15:58.156Z,100343.69
2023-04-20T15:19:03.842Z,100321.81
2023-04-20T15:20:31.273Z,100340.00
2023-04-20T15:21:56.557Z,100335.84
2023-04-20T15:23:23.623Z,100334.41
2023-04-20T15:24:46.338Z,100335.88
2023-04-20T15:26:10.543Z,100324.56
2023-04-20T15:27:33.286Z,100327.09
2023-04-20T15:28:56.786Z,100328.78
2023-04-20T15:30:22.356Z,100323.56
2023-04-20T15:31:45.660Z,100331.31
2023-04-20T15:33:08.368Z,100334.66
2023-04-20T15:34:30.056Z,100330.47
2023-04-20T15:35:57.965Z,100344.28
2023-04-20T15:37:20.729Z,100326.53
2023-04-20T15:38:42.948Z,100325.72
2023-04-20T15:40:07.833Z,100341.38
2023-04-20T15:41:47.216Z,100334.88
2023-04-20T15:43:26.813Z,100325.09
2023-04-20T15:44:52.017Z,100332.59
2023-04-20T15:46:18.395Z,100334.47
2023-04-20T15:47:44.247Z,100328.41
2023-04-20T15:49:43.765Z,100338.22
2023-04-20T15:51:16.282Z,100322.38
2023-04-20T15:52:51.766Z,100340.53
2023-04-20T15:54:17.153Z,100335.50
2023-04-20T15:55:45.737Z,100334.91
2023-04-20T15:57:07.427Z,100329.25
2023-04-20T15:58:31.455Z,100325.75
2023-04-20T15:59:54.217Z,100319.69
2023-04-20T16:01:26.088Z,100331.59
2023-04-20T16:02:49.986Z,100327.41
2023-04-20T16:04:18.066Z,100328.03
2023-04-20T16:05:40.982Z,100334.53
2023-04-20T16:07:02.964Z,100332.25
2023-04-20T16:08:25.219Z,100327.22
2023-04-20T16:09:49.072Z,100328.72
2023-04-20T16:11:11.373Z,100334.13
2023-04-20T16:12:36.537Z,100330.16
2023-04-20T16:13:58.731Z,100332.06
2023-04-20T16:15:20.346Z,100337.69
2023-04-20T16:16:43.655Z,100332.69
2023-04-20T16:18:06.303Z,100332.06
2023-04-20T16:19:28.860Z,100331.44
2023-04-20T16:20:56.053Z,100345.22
2023-04-20T16:22:18.466Z,100324.56
2023-04-20T16:23:41.040Z,100338.75
2023-04-20T16:25:03.735Z,100331.84
2023-04-20T16:26:28.827Z,100334.13
2023-04-20T16:27:50.341Z,100334.34
2023-04-20T16:29:12.410Z,100331.00
2023-04-20T16:30:37.121Z,100334.34
2023-04-20T16:32:04.137Z,100323.91
2023-04-20T16:33:30.565Z,100329.13
2023-04-20T16:35:00.263Z,100322.84
2023-04-20T16:36:27.442Z,100327.44
2023-04-20T16:37:56.314Z,100323.09
2023-04-20T16:39:19.523Z,100316.81
2023-04-20T16:40:45.786Z,100330.59
2023-04-20T16:42:10.045Z,100333.09
2023-04-20T16:43:32.479Z,100324.75
2023-04-20T16:44:58.311Z,100319.31
2023-04-20T16:46:22.629Z,100333.06
2023-04-20T16:47:52.040Z,100338.09
2023-04-20T16:49:14.046Z,100334.34
2023-04-20T16:50:40.290Z,100335.59
2023-04-20T16:52:04.380Z,100331.19
2023-04-20T16:53:32.947Z,100322.00
2023-04-20T16:54:57.547Z,100324.50
2023-04-20T16:56:27.256Z,100327.22
2023-04-20T16:57:49.410Z,100327.41
2023-04-20T16:59:28.390Z,100327.81
2023-04-20T17:00:57.547Z,100322.19
2023-04-20T17:02:30.667Z,100330.72
2023-04-20T17:04:02.570Z,100321.31
2023-04-20T17:05:25.424Z,100324.41
2023-04-20T17:07:46.910Z,100339.00
2023-04-20T17:09:32.657Z,100317.47
2023-04-20T17:11:42.834Z,100323.72
2023-04-20T17:23:17.558Z,100332.69
2023-04-20T17:24:44.150Z,100335.97
2023-04-20T17:26:29.763Z,100335.06
2023-04-20T17:28:00.231Z,100331.50
2023-04-20T17:29:38.370Z,100340.84
2023-04-20T17:31:00.524Z,100342.31
2023-04-20T17:32:22.173Z,100346.25
2023-04-20T17:33:47.167Z,100338.28
2023-04-20T17:35:12.428Z,100346.22
2023-04-20T17:36:35.033Z,100354.53
2023-04-20T17:37:57.293Z,100351.19
2023-04-20T17:39:20.517Z,100349.06
2023-04-20T17:40:46.871Z,100352.81
2023-04-20T17:42:15.498Z,100349.03
2023-04-20T17:43:40.559Z,100350.91
2023-04-20T17:45:06.703Z,100351.28
2023-04-20T17:46:32.494Z,100339.78
2023-04-20T17:47:57.114Z,100344.53
2023-04-20T17:49:51.898Z,100349.75
2023-04-20T17:51:37.863Z,100338.03
2023-04-20T17:53:14.438Z,100338.19
2023-04-20T17:55:30.728Z,100341.94
2023-04-20T18:02:14.150Z,100340.84
2023-04-20T18:03:39.248Z,100334.59
2023-04-20T18:05:01.555Z,100343.75
2023-04-20T18:06:26.720Z,100335.81
2023-04-20T18:07:55.149Z,100326.00
2023-04-20T18:09:25.746Z,100339.56
2023-04-20T18:10:48.581Z,100337.84
2023-04-20T18:12:11.579Z,100341.16
2023-04-20T18:13:33.625Z,100351.78
2023-04-20T18:14:57.615Z,100347.44
2023-04-20T18:16:21.623Z,100332.38
2023-04-20T18:17:48.412Z,100346.97
2023-04-20T18:19:10.689Z,100347.19
2023-04-20T18:20:33.074Z,100352.13
2023-04-20T18:22:27.474Z,100355.38
2023-04-20T18:30:03.389Z,100342.91
2023-04-20T18:31:30.886Z,100353.34
2023-04-20T18:32:53.884Z,100357.06
2023-04-20T18:34:18.320Z,100361.44
2023-04-20T18:36:02.454Z,100356.22
2023-04-20T18:37:35.747Z,100358.28
2023-04-20T18:39:43.263Z,100362.03
2023-04-20T18:41:09.764Z,100357.19
2023-04-20T18:43:28.866Z,100359.88
2023-04-20T18:45:30.765Z,100343.34
2023-04-20T18:50:34.121Z,100351.47
2023-04-20T18:52:11.528Z,100345.41
2023-04-20T18:53:46.636Z,100362.75
2023-04-20T18:55:20.982Z,100351.19
2023-04-20T18:57:13.223Z,100361.16
2023-04-20T18:59:15.048Z,100368.63
2023-04-20T19:01:07.787Z,100366.69
2023-04-20T19:03:08.128Z,100355.13
2023-04-20T19:04:36.367Z,100372.25
2023-04-20T19:05:58.187Z,100375.13
2023-04-20T19:07:20.722Z,100372.81
2023-04-20T19:08:42.692Z,100371.97
2023-04-20T19:10:05.698Z,100370.28
2023-04-20T19:11:32.941Z,100362.56
2023-04-20T19:12:59.449Z,100369.66
2023-04-20T19:14:30.967Z,100372.53
2023-04-20T19:15:58.381Z,100375.41
2023-04-20T19:17:20.792Z,100370.41
2023-04-20T19:22:08.632Z,100374.03
2023-04-20T19:24:10.731Z,100357.69
2023-04-20T19:25:56.898Z,100369.16
2023-04-20T19:28:09.722Z,100367.88
2023-04-20T19:29:41.961Z,100372.41
2023-04-20T19:31:08.520Z,100358.34
2023-04-20T19:32:36.796Z,100370.09
2023-04-20T19:34:09.853Z,100369.63
2023-04-20T19:35:41.274Z,100361.06
2023-04-20T19:38:03.491Z,100367.94
2023-04-20T19:40:07.255Z,100367.66
2023-04-20T19:41:49.598Z,100365.22
2023-04-20T19:43:27.955Z,100365.59
2023-04-20T19:48:25.514Z,100369.06
2023-04-20T19:49:55.185Z,100375.94
2023-04-20T20:42:13.148Z,100361.94
2023-04-20T20:44:54.575Z,100357.38
2023-04-20T20:46:45.656Z,100382.38
2023-04-20T20:49:20.213Z,100378.88
2023-04-20T20:51:27.813Z,100378.03
2023-04-20T20:54:05.532Z,100368.63
2023-04-20T20:56:33.750Z,100361.94
2023-04-20T20:58:46.672Z,100387.97
2023-04-20T21:00:19.628Z,100368.50
2023-04-20T21:02:20.150Z,100373.69
2023-04-20T21:04:13.674Z,100381.09
2023-04-20T21:06:08.631Z,100359.56
2023-04-20T21:07:48.240Z,100376.69
2023-04-20T21:09:25.263Z,100381.44
2023-04-20T21:10:51.909Z,100375.25
2023-04-20T21:12:14.273Z,100380.44
2023-04-20T21:13:41.429Z,100374.91
2023-04-20T21:15:07.648Z,100393.91
2023-04-20T21:16:30.416Z,100391.19
2023-04-20T21:17:52.793Z,100381.25
2023-04-20T21:19:14.836Z,100388.22
2023-04-20T21:20:43.546Z,100389.69
2023-04-20T21:22:05.747Z,100385.31
2023-04-20T21:23:46.734Z,100384.00
2023-04-20T21:25:24.608Z,100378.78
2023-04-20T21:32:25.864Z,100381.19
2023-04-20T21:33:48.599Z,100364.41
2023-04-20T21:35:11.718Z,100371.28
2023-04-20T21:36:34.379Z,100374.66
2023-04-20T21:37:58.568Z,100372.78
2023-04-20T21:39:21.114Z,100364.56
2023-04-20T21:40:43.679Z,100382.38
2023-04-20T21:42:11.566Z,100363.59
2023-04-20T21:43:34.139Z,100370.47
2023-04-20T21:45:02.917Z,100373.81
2023-04-20T21:46:25.327Z,100364.56
2023-04-20T21:47:51.568Z,100376.53
2023-04-20T21:49:22.875Z,100376.53
2023-04-20T21:50:47.952Z,100375.19
2023-04-20T21:52:18.590Z,100372.78
2023-04-20T21:53:41.322Z,100374.72
2023-04-20T21:55:03.845Z,100381.91
2023-04-20T21:56:58.798Z,100371.47
2023-04-20T21:58:21.090Z,100371.00
2023-04-20T21:59:46.188Z,100359.06
2023-04-20T22:01:08.021Z,100381.41
2023-04-20T22:02:31.952Z,100378.41
2023-04-20T22:03:55.415Z,100370.31
2023-04-20T22:05:21.947Z,100382.94
2023-04-20T22:06:43.129Z,100370.34
2023-04-20T22:08:10.089Z,100373.34
2023-04-20T22:09:35.191Z,100368.84
2023-04-20T22:10:58.511Z,100369.84
2023-04-20T22:12:36.301Z,100366.63
2023-04-20T22:14:09.357Z,100378.22
2023-04-20T22:15:33.252Z,100374.69
2023-04-20T22:16:54.846Z,100373.03
2023-04-20T22:18:26.268Z,100364.97
2023-04-20T22:19:49.962Z,100362.97
2023-04-20T22:21:16.743Z,100355.75
2023-04-20T22:22:57.344Z,100364.16
2023-04-20T22:24:22.101Z,100347.38
2023-04-20T22:25:46.462Z,100356.94
2023-04-20T22:27:12.254Z,100364.47
2023-04-20T22:28:34.803Z,100370.88
2023-04-20T22:29:58.675Z,100358.13
2023-04-20T22:31:21.208Z,100367.50
2023-04-20T22:32:47.615Z,100368.53
2023-04-20T22:34:18.457Z,100371.22
2023-04-20T22:35:48.692Z,100366.38
2023-04-20T22:37:11.999Z,100356.13
2023-04-20T22:38:46.500Z,100369.72
2023-04-20T22:40:09.149Z,100361.34
2023-04-20T22:41:34.905Z,100374.44
2023-04-20T22:42:56.206Z,100370.06
2023-04-20T22:44:18.178Z,100363.53
2023-04-20T22:45:40.262Z,100369.41
2023-04-20T22:47:01.496Z,100364.88
2023-04-20T22:48:23.597Z,100364.19
2023-04-20T22:49:50.501Z,100364.38
2023-04-20T22:51:14.034Z,100366.88
2023-04-20T22:52:38.033Z,100362.69
2023-04-20T22:54:02.876Z,100361.66
2023-04-20T22:55:24.940Z,100365.56
2023-04-20T22:56:46.375Z,100359.34
2023-04-20T22:58:10.075Z,100354.97
2023-04-20T22:59:32.227Z,100355.13
2023-04-20T23:00:56.877Z,100355.97
2023-04-20T23:02:22.045Z,100364.06
2023-04-20T23:03:44.426Z,100360.53
2023-04-20T23:05:07.087Z,100365.06
2023-04-20T23:06:31.750Z,100359.38
2023-04-20T23:07:56.910Z,100351.47
2023-04-20T23:09:20.791Z,100357.53
2023-04-20T23:10:47.347Z,100350.63
2023-04-20T23:12:10.512Z,100358.72
2023-04-20T23:13:33.400Z,100350.81
2023-04-20T23:14:55.087Z,100351.81
2023-04-20T23:16:17.603Z,100353.03
2023-04-20T23:17:39.485Z,100342.59
2023-04-20T23:19:01.886Z,100353.84
2023-04-20T23:20:23.306Z,100341.59
2023-04-20T23:21:47.289Z,100340.09
2023-04-20T23:23:20.512Z,100348.00
2023-04-20T23:24:43.289Z,100341.63
2023-04-20T23:26:05.371Z,100350.84
2023-04-20T23:27:27.125Z,100346.50
2023-04-20T23:28:51.662Z,100343.97
2023-04-20T23:30:16.909Z,100341.44
2023-04-20T23:31:39.407Z,100346.66
2023-04-20T23:33:04.982Z,100336.41
2023-04-20T23:34:26.471Z,100330.03
2023-04-20T23:35:50.453Z,100340.13
2023-04-20T23:37:17.187Z,100346.50
2023-04-20T23:38:38.662Z,100331.22
2023-04-20T23:40:01.246Z,100342.97
2023-04-20T23:41:23.501Z,100341.47
2023-04-20T23:42:44.566Z,100336.59
2023-04-20T23:44:07.074Z,100340.16
2023-04-20T23:45:29.466Z,100325.88
2023-04-20T23:46:52.545Z,100341.97
2023-04-20T23:48:14.849Z,100338.16
2023-04-20T23:49:39.311Z,100336.13
2023-04-20T23:51:01.976Z,100331.41
2023-04-20T23:52:25.964Z,100325.56
2023-04-20T23:53:48.468Z,100328.09
2023-04-20T23:55:10.728Z,100332.09
2023-04-20T23:56:34.689Z,100328.72
2023-04-20T23:57:58.529Z,100332.28
